Time;durP1;ratioP1;P1;durP2;ratioP2;P2;SDS_P1;SDS_P2;PMS_P1;PMS_P2;Temp;Humidity;BMP_temperature;BMP_pressure;BME280_temperature;BME280_humidity;BME280_pressure;Samples;Min_cycle;Max_cycle;Signal;HPM_P1;HPM_P2
2022/07/17 00:01:39;;;;;;;;;;;13.80;99.90;;;;;;5068650;28;20317;-71
2022/07/17 00:04:04;;;;;;;;;;;13.70;99.90;;;;;;5071416;28;19976;-71
2022/07/17 00:06:30;;;;;;;;;;;13.70;99.90;;;;;;5061608;28;19909;-71
2022/07/17 00:08:55;;;;;;;;;;;13.70;99.90;;;;;;5074573;28;19913;-71
2022/07/17 00:11:21;;;;;;;;;;;13.70;99.90;;;;;;5073704;28;19913;-70
2022/07/17 00:13:46;;;;;;;;;;;13.70;99.90;;;;;;5069387;28;19919;-71
2022/07/17 00:16:12;;;;;;;;;;;13.80;99.90;;;;;;5072358;28;19908;-71
2022/07/17 00:18:37;;;;;;;;;;;13.70;99.90;;;;;;5059858;28;20401;-71
2022/07/17 00:21:03;;;;;;;;;;;13.70;99.90;;;;;;5060928;28;19909;-71
2022/07/17 00:23:28;;;;;;;;;;;13.70;99.90;;;;;;5068838;28;19913;-70
2022/07/17 00:25:54;;;;;;;;;;;13.70;99.90;;;;;;5066365;28;19916;-71
2022/07/17 00:28:20;;;;;;;;;;;13.70;99.90;;;;;;5064542;28;19919;-71
2022/07/17 00:30:45;;;;;;;;;;;13.60;99.90;;;;;;5067762;28;20007;-71
2022/07/17 00:33:11;;;;;;;;;;;13.60;99.90;;;;;;5068987;28;19948;-71
2022/07/17 00:35:37;;;;;;;;;;;13.60;99.90;;;;;;5064045;28;20358;-71
2022/07/17 00:38:02;;;;;;;;;;;13.50;99.90;;;;;;5065205;28;19941;-71
2022/07/17 00:40:28;;;;;;;;;;;13.50;99.90;;;;;;5071722;28;20365;-74
2022/07/17 00:42:54;;;;;;;;;;;13.50;99.90;;;;;;5067509;28;19938;-72
2022/07/17 00:45:19;;;;;;;;;;;13.50;99.90;;;;;;5065649;28;19909;-71
2022/07/17 00:47:56;;;;;;;;;;;13.50;99.90;;;;;;5065416;28;19916;-72
2022/07/17 00:50:28;;;;;;;;;;;13.50;99.90;;;;;;5053786;28;19951;-71
2022/07/17 00:52:54;;;;;;;;;;;13.40;99.90;;;;;;5064095;28;19912;-72
2022/07/17 00:55:19;;;;;;;;;;;13.50;99.90;;;;;;5063735;28;19957;-71
2022/07/17 00:57:46;;;;;;;;;;;13.50;99.90;;;;;;5064103;28;19909;-71
2022/07/17 01:00:12;;;;;;;;;;;13.40;99.90;;;;;;5054394;28;20374;-71
2022/07/17 01:02:38;;;;;;;;;;;13.40;99.90;;;;;;5052375;28;19923;-71
2022/07/17 01:05:04;;;;;;;;;;;13.40;99.90;;;;;;5068996;28;20278;-71
2022/07/17 01:07:30;;;;;;;;;;;13.40;99.90;;;;;;5057638;28;20031;-71
2022/07/17 01:09:55;;;;;;;;;;;13.40;99.90;;;;;;5057859;28;20015;-71
2022/07/17 01:12:22;;;;;;;;;;;13.30;99.90;;;;;;5067308;28;19912;-71
2022/07/17 01:14:48;;;;;;;;;;;13.40;99.90;;;;;;5067358;28;19928;-71
2022/07/17 01:17:13;;;;;;;;;;;13.30;99.90;;;;;;5066872;28;19962;-71
2022/07/17 01:19:39;;;;;;;;;;;13.30;99.90;;;;;;5067128;28;19958;-71
2022/07/17 01:22:04;;;;;;;;;;;13.30;99.90;;;;;;5069200;28;19916;-71
2022/07/17 01:24:30;;;;;;;;;;;13.30;99.90;;;;;;5073176;28;19909;-71
2022/07/17 01:26:55;;;;;;;;;;;13.30;99.90;;;;;;5078409;28;19912;-72
2022/07/17 01:29:21;;;;;;;;;;;13.30;99.90;;;;;;5069158;28;19908;-72
2022/07/17 01:31:46;;;;;;;;;;;13.30;99.90;;;;;;5055386;28;19909;-72
2022/07/17 01:34:12;;;;;;;;;;;13.30;99.90;;;;;;5066448;28;19955;-72
2022/07/17 01:36:38;;;;;;;;;;;13.20;99.90;;;;;;5066020;28;19919;-72
2022/07/17 01:39:04;;;;;;;;;;;13.30;99.90;;;;;;5064953;28;20366;-72
2022/07/17 01:41:30;;;;;;;;;;;13.30;99.90;;;;;;5066658;28;20289;-71
2022/07/17 01:43:55;;;;;;;;;;;13.20;99.90;;;;;;5069069;28;19908;-71
2022/07/17 01:46:21;;;;;;;;;;;13.10;99.90;;;;;;5068266;28;19908;-72
2022/07/17 01:48:46;;;;;;;;;;;13.00;99.90;;;;;;5069035;28;19999;-71
2022/07/17 01:51:12;;;;;;;;;;;13.00;99.90;;;;;;5074260;28;19976;-72
2022/07/17 01:53:37;;;;;;;;;;;13.00;99.90;;;;;;5072042;28;20251;-72
2022/07/17 01:56:03;;;;;;;;;;;13.00;99.90;;;;;;5056606;28;19909;-72
2022/07/17 01:58:29;;;;;;;;;;;13.00;99.90;;;;;;5056165;28;19916;-72
2022/07/17 02:00:55;;;;;;;;;;;13.00;99.90;;;;;;5065489;28;19912;-72
2022/07/17 02:03:21;;;;;;;;;;;13.00;99.90;;;;;;5066821;28;19912;-72
2022/07/17 02:05:46;;;;;;;;;;;12.90;99.90;;;;;;5066350;28;19912;-72
2022/07/17 02:08:12;;;;;;;;;;;12.90;99.90;;;;;;5069202;28;20396;-71
2022/07/17 02:10:37;;;;;;;;;;;12.80;99.90;;;;;;5068229;28;19971;-72
2022/07/17 02:13:03;;;;;;;;;;;12.80;99.90;;;;;;5057597;28;19966;-73
2022/07/17 02:15:29;;;;;;;;;;;12.80;99.90;;;;;;5063513;28;19920;-71
2022/07/17 02:17:57;;;;;;;;;;;12.70;99.90;;;;;;5068798;28;19973;-73
2022/07/17 02:20:23;;;;;;;;;;;12.70;99.90;;;;;;5066746;28;19935;-71
2022/07/17 02:22:48;;;;;;;;;;;12.70;99.90;;;;;;5065185;28;20361;-72
2022/07/17 02:25:15;;;;;;;;;;;12.70;99.90;;;;;;5070405;28;20263;-73
2022/07/17 02:27:40;;;;;;;;;;;12.70;99.90;;;;;;5065598;28;19909;-71
2022/07/17 02:30:08;;;;;;;;;;;12.70;99.90;;;;;;5067321;28;19916;-71
2022/07/17 02:32:33;;;;;;;;;;;12.70;99.90;;;;;;5064241;28;19909;-71
2022/07/17 02:34:59;;;;;;;;;;;12.70;99.90;;;;;;5086412;22;19923;-57
2022/07/17 02:37:24;;;;;;;;;;;12.70;99.90;;;;;;5092537;28;19924;-53
2022/07/17 02:39:53;;;;;;;;;;;12.60;99.90;;;;;;5090423;28;19908;-55
2022/07/17 02:42:22;;;;;;;;;;;12.60;99.90;;;;;;5095542;28;19978;-56
2022/07/17 02:44:47;;;;;;;;;;;12.60;99.90;;;;;;5105169;28;19912;-55
2022/07/17 02:47:14;;;;;;;;;;;12.60;99.90;;;;;;5104202;28;19920;-58
2022/07/17 02:49:39;;;;;;;;;;;12.50;99.90;;;;;;5119562;28;19908;-57
2022/07/17 02:52:05;;;;;;;;;;;12.60;99.90;;;;;;5116193;28;19908;-55
2022/07/17 02:54:30;;;;;;;;;;;12.60;99.90;;;;;;5096856;28;19916;-56
2022/07/17 02:56:56;;;;;;;;;;;12.60;99.90;;;;;;5115216;28;19915;-56
2022/07/17 02:59:21;;;;;;;;;;;12.60;99.90;;;;;;5115338;28;19951;-56
2022/07/17 03:01:47;;;;;;;;;;;12.70;99.90;;;;;;5114929;28;19934;-58
2022/07/17 03:04:12;;;;;;;;;;;12.60;99.90;;;;;;5114965;28;19915;-55
2022/07/17 03:06:38;;;;;;;;;;;12.70;99.90;;;;;;5096850;28;19908;-57
2022/07/17 03:09:03;;;;;;;;;;;12.70;99.90;;;;;;5114879;28;19908;-55
2022/07/17 03:11:29;;;;;;;;;;;12.60;99.90;;;;;;5096633;28;20003;-54
2022/07/17 03:13:54;;;;;;;;;;;12.60;99.90;;;;;;5114850;28;19908;-56
2022/07/17 03:16:20;;;;;;;;;;;12.60;99.90;;;;;;5114653;28;19961;-54
2022/07/17 03:18:45;;;;;;;;;;;12.60;99.90;;;;;;5114995;28;20085;-52
2022/07/17 03:21:10;;;;;;;;;;;12.60;99.90;;;;;;5114463;28;19990;-53
2022/07/17 03:23:36;;;;;;;;;;;12.60;99.90;;;;;;5093114;28;19916;-55
2022/07/17 03:26:01;;;;;;;;;;;12.50;99.90;;;;;;5090640;28;19912;-52
2022/07/17 03:28:27;;;;;;;;;;;12.50;99.90;;;;;;5094258;28;20324;-54
2022/07/17 03:30:52;;;;;;;;;;;12.60;99.90;;;;;;5093813;28;20003;-56
2022/07/17 03:33:18;;;;;;;;;;;12.50;99.90;;;;;;5094061;28;20377;-55
2022/07/17 03:35:43;;;;;;;;;;;12.60;99.90;;;;;;5093928;28;19916;-54
2022/07/17 03:38:09;;;;;;;;;;;12.60;99.90;;;;;;5094092;28;19908;-56
2022/07/17 03:40:34;;;;;;;;;;;12.60;99.90;;;;;;5094091;28;19961;-54
2022/07/17 03:43:00;;;;;;;;;;;12.50;99.90;;;;;;5094079;28;20367;-55
2022/07/17 03:45:26;;;;;;;;;;;12.50;99.90;;;;;;5093910;28;19915;-53
2022/07/17 03:47:51;;;;;;;;;;;12.40;99.90;;;;;;5076798;28;19915;-56
2022/07/17 03:50:17;;;;;;;;;;;12.40;99.90;;;;;;5094812;28;19961;-56
2022/07/17 03:52:42;;;;;;;;;;;12.40;99.90;;;;;;5094186;28;19912;-56
2022/07/17 03:55:08;;;;;;;;;;;12.40;99.90;;;;;;5094346;28;19915;-55
2022/07/17 03:57:33;;;;;;;;;;;12.40;99.90;;;;;;5095058;28;20435;-55
2022/07/17 03:59:59;;;;;;;;;;;12.40;99.90;;;;;;5094692;28;19977;-58
2022/07/17 04:02:24;;;;;;;;;;;12.40;99.90;;;;;;5094261;28;19912;-56
2022/07/17 04:04:50;;;;;;;;;;;12.40;99.90;;;;;;5094340;28;19908;-55
2022/07/17 04:07:28;;;;;;;;;;;12.40;99.90;;;;;;5094891;28;19931;-57
2022/07/17 04:09:57;;;;;;;;;;;12.40;99.90;;;;;;5094767;28;20353;-56
2022/07/17 04:12:23;;;;;;;;;;;12.50;99.90;;;;;;5094467;28;19912;-55
2022/07/17 04:14:49;;;;;;;;;;;12.40;99.90;;;;;;5094325;28;19916;-56
2022/07/17 04:17:15;;;;;;;;;;;12.40;99.90;;;;;;5093705;28;19999;-54
2022/07/17 04:19:40;;;;;;;;;;;12.50;99.90;;;;;;5093298;28;19977;-55
2022/07/17 04:22:05;;;;;;;;;;;12.60;99.90;;;;;;5093545;28;19912;-58
2022/07/17 04:24:31;;;;;;;;;;;12.40;99.90;;;;;;5093513;28;20288;-56
2022/07/17 04:26:56;;;;;;;;;;;12.40;99.90;;;;;;5093287;28;19912;-57
2022/07/17 04:29:22;;;;;;;;;;;12.40;99.90;;;;;;5093480;28;19952;-57
2022/07/17 04:31:47;;;;;;;;;;;12.50;99.90;;;;;;5093101;28;19909;-57
2022/07/17 04:34:13;;;;;;;;;;;12.60;99.90;;;;;;5093033;28;19914;-57
2022/07/17 04:36:38;;;;;;;;;;;12.60;99.90;;;;;;5092972;28;20402;-56
2022/07/17 04:39:04;;;;;;;;;;;12.60;99.90;;;;;;5077367;28;19912;-56
2022/07/17 04:41:29;;;;;;;;;;;12.60;99.90;;;;;;5097050;28;19912;-58
2022/07/17 04:43:55;;;;;;;;;;;12.60;99.90;;;;;;5096981;28;19915;-56
2022/07/17 04:46:20;;;;;;;;;;;12.60;99.90;;;;;;5096851;28;20272;-56
2022/07/17 04:48:46;;;;;;;;;;;12.60;99.90;;;;;;5097427;28;19943;-54
2022/07/17 04:51:11;;;;;;;;;;;12.60;99.90;;;;;;5096760;28;20357;-56
2022/07/17 04:53:37;;;;;;;;;;;12.70;99.90;;;;;;5096954;28;19916;-58
2022/07/17 04:56:03;;;;;;;;;;;12.70;99.90;;;;;;5097118;28;19919;-58
2022/07/17 04:58:29;;;;;;;;;;;12.90;99.90;;;;;;5096028;28;20365;-57
2022/07/17 05:00:54;;;;;;;;;;;12.90;99.90;;;;;;5094584;28;20365;-57
2022/07/17 05:03:20;;;;;;;;;;;12.90;99.90;;;;;;5094490;28;19912;-53
2022/07/17 05:05:45;;;;;;;;;;;12.90;99.90;;;;;;5094499;28;19914;-56
2022/07/17 05:08:11;;;;;;;;;;;12.90;99.90;;;;;;5094483;28;20049;-56
2022/07/17 05:10:36;;;;;;;;;;;12.90;99.90;;;;;;5095834;28;20273;-57
2022/07/17 05:13:02;;;;;;;;;;;13.00;99.90;;;;;;5095438;28;19956;-55
2022/07/17 05:15:27;;;;;;;;;;;13.00;99.90;;;;;;5096124;28;19915;-58
2022/07/17 05:17:53;;;;;;;;;;;13.10;99.90;;;;;;5096652;28;19915;-55
2022/07/17 05:20:18;;;;;;;;;;;13.10;99.90;;;;;;5096422;28;19953;-56
2022/07/17 05:22:44;;;;;;;;;;;13.30;99.90;;;;;;5097087;28;19916;-58
2022/07/17 05:25:09;;;;;;;;;;;13.30;99.90;;;;;;5097619;28;19908;-58
2022/07/17 05:27:35;;;;;;;;;;;13.40;99.90;;;;;;5097707;28;19999;-59
2022/07/17 05:30:00;;;;;;;;;;;13.50;99.90;;;;;;5097013;28;20365;-56
2022/07/17 05:32:26;;;;;;;;;;;13.60;99.90;;;;;;5096590;28;19915;-58
2022/07/17 05:34:51;;;;;;;;;;;13.70;99.90;;;;;;5096962;28;19908;-56
2022/07/17 05:37:17;;;;;;;;;;;13.70;99.90;;;;;;5096180;28;20038;-54
2022/07/17 05:39:42;;;;;;;;;;;13.60;99.90;;;;;;5096356;28;19960;-58
2022/07/17 05:42:08;;;;;;;;;;;13.70;99.90;;;;;;5096016;28;19952;-58
2022/07/17 05:44:33;;;;;;;;;;;13.70;99.90;;;;;;5095975;28;19909;-58
2022/07/17 05:46:59;;;;;;;;;;;13.80;99.90;;;;;;5095918;28;19919;-58
2022/07/17 05:49:24;;;;;;;;;;;13.80;99.90;;;;;;5096061;28;20261;-58
2022/07/17 05:51:50;;;;;;;;;;;13.80;99.90;;;;;;5095847;28;20349;-58
2022/07/17 05:54:15;;;;;;;;;;;13.80;99.90;;;;;;5103005;28;19912;-57
2022/07/17 05:56:41;;;;;;;;;;;13.90;99.90;;;;;;5096809;28;19915;-58
2022/07/17 05:59:06;;;;;;;;;;;14.00;99.90;;;;;;5115435;28;20288;-58
2022/07/17 06:01:32;;;;;;;;;;;14.00;99.90;;;;;;5105154;28;19967;-58
2022/07/17 06:03:57;;;;;;;;;;;14.10;99.90;;;;;;5088932;28;20008;-58
2022/07/17 06:06:23;;;;;;;;;;;14.30;99.90;;;;;;5075961;28;19916;-58
2022/07/17 06:08:48;;;;;;;;;;;14.40;99.90;;;;;;5075467;28;19916;-58
2022/07/17 06:11:14;;;;;;;;;;;14.60;99.90;;;;;;5075342;28;20242;-57
2022/07/17 06:13:39;;;;;;;;;;;14.80;99.90;;;;;;5075633;28;19909;-58
2022/07/17 06:16:05;;;;;;;;;;;15.00;99.90;;;;;;5075212;28;19935;-58
2022/07/17 06:18:30;;;;;;;;;;;15.20;99.90;;;;;;5092284;28;20326;-58
2022/07/17 06:20:56;;;;;;;;;;;15.40;99.90;;;;;;5095308;28;19931;-59
2022/07/17 06:23:21;;;;;;;;;;;15.50;99.90;;;;;;5095437;28;20368;-58
2022/07/17 06:25:47;;;;;;;;;;;15.60;99.90;;;;;;5086101;28;19908;-56
2022/07/17 06:28:12;;;;;;;;;;;15.60;99.90;;;;;;5075130;28;19912;-56
2022/07/17 06:30:38;;;;;;;;;;;15.50;99.90;;;;;;5075022;28;19909;-58
2022/07/17 06:33:03;;;;;;;;;;;15.50;99.90;;;;;;5074928;28;19909;-58
2022/07/17 06:35:30;;;;;;;;;;;15.60;99.90;;;;;;5074952;28;19998;-57
2022/07/17 06:37:59;;;;;;;;;;;15.60;99.90;;;;;;5075041;28;19908;-57
2022/07/17 06:40:24;;;;;;;;;;;15.70;99.90;;;;;;5074761;28;19916;-58
2022/07/17 06:42:50;;;;;;;;;;;15.80;99.90;;;;;;5075403;28;19912;-58
2022/07/17 06:45:15;;;;;;;;;;;15.90;99.90;;;;;;5074462;28;20266;-58
2022/07/17 06:47:41;;;;;;;;;;;15.90;99.90;;;;;;5076357;28;19916;-58
2022/07/17 06:50:06;;;;;;;;;;;15.90;99.90;;;;;;5075220;28;19916;-58
2022/07/17 06:52:32;;;;;;;;;;;15.90;99.90;;;;;;5074730;28;19915;-57
2022/07/17 06:54:58;;;;;;;;;;;16.00;99.90;;;;;;5074495;28;20373;-58
2022/07/17 06:57:23;;;;;;;;;;;16.00;99.90;;;;;;5074432;28;19908;-58
2022/07/17 06:59:48;;;;;;;;;;;16.10;99.90;;;;;;5074347;28;20354;-58
2022/07/17 07:02:14;;;;;;;;;;;16.20;99.90;;;;;;5073825;28;19913;-59
2022/07/17 07:04:40;;;;;;;;;;;16.30;99.90;;;;;;5074904;28;19914;-58
2022/07/17 07:07:05;;;;;;;;;;;16.40;99.90;;;;;;5075950;28;20288;-58
2022/07/17 07:09:32;;;;;;;;;;;16.50;99.90;;;;;;5076406;28;19909;-56
2022/07/17 07:11:58;;;;;;;;;;;16.50;99.90;;;;;;5075470;28;19908;-58
2022/07/17 07:14:23;;;;;;;;;;;16.40;99.90;;;;;;5075639;28;20391;-58
2022/07/17 07:16:49;;;;;;;;;;;16.50;99.90;;;;;;5075508;28;20384;-59
2022/07/17 07:19:14;;;;;;;;;;;16.60;99.90;;;;;;5074044;28;19909;-58
2022/07/17 07:21:40;;;;;;;;;;;16.70;99.90;;;;;;5074255;28;20301;-58
2022/07/17 07:24:05;;;;;;;;;;;16.90;99.90;;;;;;5074309;28;19931;-58
2022/07/17 07:26:31;;;;;;;;;;;17.00;99.90;;;;;;5073097;28;20344;-59
2022/07/17 07:28:56;;;;;;;;;;;17.10;99.90;;;;;;5093149;28;19912;-59
2022/07/17 07:31:22;;;;;;;;;;;17.10;99.90;;;;;;5092615;28;19912;-58
2022/07/17 07:33:47;;;;;;;;;;;17.20;99.90;;;;;;5104452;28;19908;-58
2022/07/17 07:36:13;;;;;;;;;;;17.20;99.90;;;;;;5113770;28;19951;-58
2022/07/17 07:38:38;;;;;;;;;;;17.10;99.90;;;;;;5111116;28;19918;-58
2022/07/17 07:41:04;;;;;;;;;;;17.20;99.90;;;;;;5112029;28;20454;-58
2022/07/17 07:43:30;;;;;;;;;;;17.30;99.90;;;;;;5112263;28;19998;-58
2022/07/17 07:45:56;;;;;;;;;;;17.30;99.90;;;;;;5113742;28;20280;-58
2022/07/17 07:48:21;;;;;;;;;;;17.50;99.90;;;;;;5097625;28;19908;-58
2022/07/17 07:50:47;;;;;;;;;;;17.60;99.90;;;;;;5115118;28;19969;-58
2022/07/17 07:53:12;;;;;;;;;;;17.80;99.90;;;;;;5115561;28;19912;-58
2022/07/17 07:55:38;;;;;;;;;;;17.90;99.90;;;;;;5115623;28;20007;-58
2022/07/17 07:58:04;;;;;;;;;;;18.00;99.90;;;;;;5116173;28;19907;-58
2022/07/17 08:00:30;;;;;;;;;;;18.10;99.90;;;;;;5118413;28;19982;-58
2022/07/17 08:02:55;;;;;;;;;;;18.10;99.90;;;;;;5116828;28;19946;-57
2022/07/17 08:05:21;;;;;;;;;;;18.10;99.90;;;;;;5115543;28;19915;-57
2022/07/17 08:07:46;;;;;;;;;;;18.10;99.90;;;;;;5116962;28;19935;-58
2022/07/17 08:10:12;;;;;;;;;;;18.10;99.90;;;;;;5114741;28;19930;-58
2022/07/17 08:12:38;;;;;;;;;;;18.00;99.90;;;;;;5114082;28;19965;-57
2022/07/17 08:15:04;;;;;;;;;;;18.00;99.90;;;;;;5118421;28;19995;-56
2022/07/17 08:17:30;;;;;;;;;;;18.10;99.90;;;;;;5118183;28;19909;-54
2022/07/17 08:19:55;;;;;;;;;;;18.20;99.90;;;;;;5117882;28;19915;-56
2022/07/17 08:22:21;;;;;;;;;;;18.40;99.90;;;;;;5117967;28;20417;-56
2022/07/17 08:24:46;;;;;;;;;;;18.50;99.90;;;;;;5117913;28;19951;-55
2022/07/17 08:27:12;;;;;;;;;;;18.40;99.90;;;;;;5117726;28;19956;-57
2022/07/17 08:29:37;;;;;;;;;;;18.50;99.90;;;;;;5117784;28;19908;-57
2022/07/17 08:32:03;;;;;;;;;;;18.60;99.90;;;;;;5089975;28;20407;-57
2022/07/17 08:34:28;;;;;;;;;;;18.60;99.90;;;;;;5107846;28;19918;-56
2022/07/17 08:36:54;;;;;;;;;;;18.70;99.90;;;;;;5117456;28;19919;-58
2022/07/17 08:39:19;;;;;;;;;;;18.70;99.90;;;;;;5117727;28;19977;-57
2022/07/17 08:41:46;;;;;;;;;;;18.70;99.90;;;;;;5117407;28;19911;-57
2022/07/17 08:44:11;;;;;;;;;;;18.80;99.90;;;;;;5114492;28;20284;-57
2022/07/17 08:46:37;;;;;;;;;;;18.70;99.90;;;;;;5117289;28;19914;-56
2022/07/17 08:49:03;;;;;;;;;;;18.60;99.90;;;;;;5117528;28;19912;-57
2022/07/17 08:51:29;;;;;;;;;;;18.80;99.90;;;;;;5112645;28;19912;-57
2022/07/17 08:53:55;;;;;;;;;;;18.90;99.90;;;;;;5117740;28;20387;-57
2022/07/17 08:56:21;;;;;;;;;;;18.90;99.90;;;;;;5117542;28;19908;-56
2022/07/17 08:58:47;;;;;;;;;;;19.00;99.90;;;;;;5115838;28;19914;-55
2022/07/17 09:01:13;;;;;;;;;;;19.10;99.90;;;;;;5114980;28;19950;-58
2022/07/17 09:03:39;;;;;;;;;;;19.10;99.90;;;;;;5116962;28;19915;-56
2022/07/17 09:06:04;;;;;;;;;;;19.20;99.90;;;;;;5117082;28;19907;-58
2022/07/17 09:08:33;;;;;;;;;;;19.30;99.90;;;;;;5117437;28;19947;-53
2022/07/17 09:10:59;;;;;;;;;;;19.30;99.90;;;;;;5118007;28;19912;-56
2022/07/17 09:13:28;;;;;;;;;;;19.30;99.90;;;;;;5117727;28;20367;-57
2022/07/17 09:15:59;;;;;;;;;;;19.10;99.90;;;;;;5117533;28;19907;-57
2022/07/17 09:18:24;;;;;;;;;;;19.00;99.90;;;;;;5117348;28;19907;-54
2022/07/17 09:20:51;;;;;;;;;;;19.00;99.90;;;;;;5116473;28;19907;-54
2022/07/17 09:23:18;;;;;;;;;;;19.00;99.90;;;;;;5116472;28;19912;-53
2022/07/17 09:25:45;;;;;;;;;;;19.20;99.90;;;;;;5116309;28;19908;-56
2022/07/17 09:28:12;;;;;;;;;;;19.20;99.90;;;;;;5116766;28;20326;-56
2022/07/17 09:30:39;;;;;;;;;;;19.40;99.90;;;;;;5117195;28;20387;-57
2022/07/17 09:33:11;;;;;;;;;;;19.50;99.90;;;;;;5116724;28;20318;-54
2022/07/17 09:35:44;;;;;;;;;;;19.60;99.90;;;;;;5116656;28;20281;-53
2022/07/17 09:38:09;;;;;;;;;;;19.70;99.90;;;;;;5098205;28;20311;-56
2022/07/17 09:43:18;;;;;;;;;;;19.80;99.90;;;;;;5105833;28;19923;-54
2022/07/17 09:45:44;;;;;;;;;;;19.80;99.90;;;;;;5096015;28;19908;-56
2022/07/17 09:48:10;;;;;;;;;;;19.90;99.90;;;;;;5096299;28;19908;-57
2022/07/17 09:50:36;;;;;;;;;;;20.00;99.90;;;;;;5095690;28;19961;-51
2022/07/17 09:53:03;;;;;;;;;;;20.30;99.90;;;;;;5096074;28;20253;-55
2022/07/17 09:55:30;;;;;;;;;;;20.60;99.90;;;;;;5095804;28;19919;-56
2022/07/17 09:57:58;;;;;;;;;;;20.80;99.90;;;;;;5095721;28;19908;-54
2022/07/17 10:00:23;;;;;;;;;;;20.70;99.90;;;;;;5095765;28;20003;-55
2022/07/17 10:02:49;;;;;;;;;;;20.70;99.90;;;;;;5095635;28;20007;-56
2022/07/17 10:05:15;;;;;;;;;;;20.50;99.90;;;;;;5095615;28;19908;-53
2022/07/17 10:07:45;;;;;;;;;;;20.30;99.90;;;;;;5095813;28;19915;-55
2022/07/17 10:10:11;;;;;;;;;;;20.30;99.90;;;;;;5095529;28;19957;-56
2022/07/17 10:12:38;;;;;;;;;;;20.20;99.90;;;;;;5095307;28;20419;-55
2022/07/17 10:15:04;;;;;;;;;;;20.20;99.90;;;;;;5095675;28;19908;-57
2022/07/17 10:17:30;;;;;;;;;;;20.30;99.90;;;;;;5095493;28;19915;-56
2022/07/17 10:19:56;;;;;;;;;;;20.10;99.90;;;;;;5077002;28;19908;-57
2022/07/17 10:22:22;;;;;;;;;;;20.00;99.90;;;;;;5108306;28;19916;-55
2022/07/17 10:24:52;;;;;;;;;;;20.20;99.90;;;;;;5079137;28;20357;-55
2022/07/17 10:27:27;;;;;;;;;;;20.20;99.90;;;;;;5075143;28;19908;-53
2022/07/17 10:30:06;;;;;;;;;;;20.20;99.90;;;;;;5075217;28;19913;-56
2022/07/17 10:32:32;;;;;;;;;;;20.40;99.90;;;;;;5075047;28;20031;-57
2022/07/17 10:34:59;;;;;;;;;;;20.60;99.90;;;;;;5074904;28;19961;-55
2022/07/17 10:37:27;;;;;;;;;;;20.60;99.90;;;;;;5084740;28;20291;-52
2022/07/17 10:39:53;;;;;;;;;;;20.70;99.90;;;;;;5095728;28;19919;-52
2022/07/17 10:42:36;;;;;;;;;;;20.70;99.90;;;;;;5096588;28;20266;-56
2022/07/17 10:45:09;;;;;;;;;;;20.70;99.90;;;;;;5095461;28;20011;-53
2022/07/17 10:47:55;;;;;;;;;;;20.70;99.90;;;;;;5095004;28;19909;-53
2022/07/17 10:50:35;;;;;;;;;;;20.80;99.90;;;;;;5083738;28;19915;-52
2022/07/17 10:53:08;;;;;;;;;;;21.00;99.90;;;;;;5094930;28;19908;-52
2022/07/17 10:55:35;;;;;;;;;;;21.00;99.90;;;;;;5076685;28;19947;-52
2022/07/17 10:58:01;;;;;;;;;;;21.10;99.90;;;;;;5091551;28;20006;-53
2022/07/17 11:00:27;;;;;;;;;;;21.10;99.90;;;;;;5085580;28;20329;-53
2022/07/17 11:02:53;;;;;;;;;;;21.10;99.90;;;;;;5094708;28;19916;-55
2022/07/17 11:05:19;;;;;;;;;;;21.10;99.90;;;;;;5094431;28;20311;-55
2022/07/17 11:07:58;;;;;;;;;;;21.10;99.90;;;;;;5094101;28;19912;-55
2022/07/17 11:10:25;;;;;;;;;;;21.10;99.90;;;;;;5090690;28;20002;-56
2022/07/17 11:12:51;;;;;;;;;;;21.10;99.90;;;;;;5093213;28;20258;-54
2022/07/17 11:15:17;;;;;;;;;;;21.10;99.90;;;;;;5092208;28;19961;-56
2022/07/17 11:17:46;;;;;;;;;;;21.00;99.90;;;;;;5102206;28;19912;-55
2022/07/17 11:20:12;;;;;;;;;;;21.10;99.90;;;;;;5110409;28;19974;-52
2022/07/17 11:22:37;;;;;;;;;;;21.10;99.90;;;;;;5090748;28;19980;-55
2022/07/17 11:25:04;;;;;;;;;;;21.20;99.90;;;;;;5093081;28;19908;-56
2022/07/17 11:27:33;;;;;;;;;;;21.20;99.90;;;;;;5090145;28;20360;-54
